Time;durP1;ratioP1;P1;durP2;ratioP2;P2;SDS_P1;SDS_P2;PMS_P1;PMS_P2;Temp;Humidity;BMP_temperature;BMP_pressure;BME280_temperature;BME280_humidity;BME280_pressure;Samples;Min_cycle;Max_cycle;Signal;HPM_P1;HPM_P2
2021/11/17 02:27:26;;;;;;;6.93;5.60;;;6.70;99.90;;;;;;5005379;28;20497;-75
2021/11/17 02:30:01;;;;;;;6.53;5.20;;;6.70;99.90;;;;;;5014067;28;20110;-75
2021/11/17 02:32:39;;;;;;;7.18;5.60;;;6.70;99.90;;;;;;5013524;28;20030;-75
2021/11/17 02:35:30;;;;;;;6.15;4.75;;;6.70;99.90;;;;;;5001321;28;20117;-75
2021/11/17 02:38:05;;;;;;;7.15;5.15;;;6.70;99.90;;;;;;5003250;28;20390;-75
2021/11/17 02:41:18;;;;;;;7.70;6.20;;;6.70;99.90;;;;;;5005458;28;20128;-75
2021/11/17 02:43:54;;;;;;;6.35;5.30;;;6.70;99.90;;;;;;5004747;28;20035;-75
2021/11/17 02:46:39;;;;;;;6.90;5.22;;;6.60;99.90;;;;;;5022744;28;20018;-75
2021/11/17 02:49:24;;;;;;;5.95;4.55;;;6.60;99.90;;;;;;5015233;28;20033;-75
2021/11/17 02:52:11;;;;;;;6.72;4.50;;;6.70;99.90;;;;;;5010922;28;20029;-74
2021/11/17 02:54:36;;;;;;;5.57;4.35;;;6.60;99.90;;;;;;5003294;28;20504;-74
2021/11/17 02:57:25;;;;;;;5.18;4.68;;;6.50;99.90;;;;;;5006077;28;20096;-75
2021/11/17 03:00:15;;;;;;;6.68;5.07;;;6.50;99.90;;;;;;4993885;28;20044;-74
2021/11/17 03:02:46;;;;;;;6.40;4.80;;;6.60;99.90;;;;;;5006476;28;20025;-74
2021/11/17 03:05:27;;;;;;;6.43;5.13;;;6.60;99.90;;;;;;5004623;28;20068;-74
2021/11/17 03:08:26;;;;;;;8.00;5.30;;;6.60;99.90;;;;;;5011425;28;20477;-73
2021/11/17 03:10:51;;;;;;;6.65;5.57;;;6.60;99.90;;;;;;5008982;28;20073;-73
2021/11/17 03:13:23;;;;;;;6.22;5.47;;;6.60;99.90;;;;;;5003574;28;20437;-74
2021/11/17 03:16:01;;;;;;;7.10;5.47;;;6.50;99.90;;;;;;5004530;28;20052;-73
2021/11/17 03:18:50;;;;;;;7.57;5.57;;;6.50;99.90;;;;;;5013507;28;20026;-74
2021/11/17 03:21:34;;;;;;;7.50;5.53;;;6.60;99.90;;;;;;5007009;28;20029;-74
2021/11/17 03:24:10;;;;;;;6.28;5.63;;;6.50;99.90;;;;;;5012610;28;20026;-74
2021/11/17 03:27:20;;;;;;;6.15;5.07;;;6.60;99.90;;;;;;5010868;28;20091;-74
2021/11/17 03:29:54;;;;;;;8.02;5.80;;;6.60;99.90;;;;;;4998486;28;20084;-74
2021/11/17 03:32:48;;;;;;;6.68;5.95;;;6.50;99.90;;;;;;5012010;28;20037;-74
2021/11/17 03:35:20;;;;;;;6.68;5.45;;;6.60;99.90;;;;;;5008991;28;20458;-74
2021/11/17 03:37:55;;;;;;;8.98;5.97;;;6.60;99.90;;;;;;5012998;28;20081;-74
2021/11/17 03:40:45;;;;;;;7.72;5.70;;;6.50;99.90;;;;;;5011329;28;20022;-75
2021/11/17 03:44:01;;;;;;;7.13;6.40;;;6.50;99.90;;;;;;5009007;28;20116;-74
2021/11/17 03:46:32;;;;;;;6.78;5.68;;;6.50;99.90;;;;;;5010670;28;20018;-74
2021/11/17 03:49:23;;;;;;;8.88;6.30;;;6.60;99.90;;;;;;5014637;28;20062;-72
2021/11/17 03:51:58;;;;;;;7.95;6.28;;;6.50;99.90;;;;;;4991290;28;20045;-74
2021/11/17 03:54:52;;;;;;;8.27;6.50;;;6.50;99.90;;;;;;5008456;28;20041;-73
2021/11/17 03:57:26;;;;;;;7.45;6.60;;;6.50;99.90;;;;;;5010753;28;20026;-75
2021/11/17 04:00:16;;;;;;;8.20;6.72;;;6.50;99.90;;;;;;5012791;28;20064;-74
2021/11/17 04:02:57;;;;;;;8.15;5.93;;;6.50;99.90;;;;;;5012546;28;20032;-73
2021/11/17 04:05:50;;;;;;;8.35;6.15;;;6.50;99.90;;;;;;4996090;28;20291;-74
2021/11/17 04:08:48;;;;;;;7.63;6.32;;;6.50;99.90;;;;;;5060439;23;20052;-77
2021/11/17 04:11:29;;;;;;;9.07;6.28;;;6.50;99.90;;;;;;5040387;28;20081;-77
2021/11/17 04:14:21;;;;;;;7.43;5.65;;;6.40;99.90;;;;;;5038805;28;20403;-77
2021/11/17 04:16:52;;;;;;;7.65;5.57;;;6.40;99.90;;;;;;5026681;28;20041;-76
2021/11/17 04:19:20;;;;;;;8.00;6.32;;;6.40;99.90;;;;;;5034177;28;20508;-76
2021/11/17 04:22:05;;;;;;;7.10;5.93;;;6.40;99.90;;;;;;5052772;28;20037;-76
2021/11/17 04:24:49;;;;;;;8.55;6.40;;;6.30;99.90;;;;;;5049797;28;20022;-77
2021/11/17 04:27:38;;;;;;;7.68;6.18;;;6.40;99.90;;;;;;5036395;28;20092;-75
2021/11/17 04:30:24;;;;;;;8.77;6.57;;;6.40;99.90;;;;;;5014454;28;20029;-77
2021/11/17 04:33:18;;;;;;;9.60;6.35;;;6.40;99.90;;;;;;5031408;28;20022;-77
2021/11/17 04:35:56;;;;;;;8.48;6.90;;;6.40;99.90;;;;;;5045454;28;20020;-77
2021/11/17 04:38:31;;;;;;;6.72;5.70;;;6.40;99.90;;;;;;5053308;28;20056;-77
2021/11/17 04:41:07;;;;;;;8.30;5.93;;;6.30;99.90;;;;;;5051588;28;20032;-79
2021/11/17 04:44:08;;;;;;;7.43;6.22;;;6.30;99.90;;;;;;5032246;28;20076;-76
2021/11/17 04:46:36;;;;;;;6.60;5.45;;;6.30;99.90;;;;;;5034291;28;20033;-77
2021/11/17 04:49:11;;;;;;;8.45;5.78;;;6.30;99.90;;;;;;5034204;28;20030;-78
2021/11/17 04:51:56;;;;;;;6.45;5.13;;;6.40;99.90;;;;;;5032469;28;20048;-76
2021/11/17 04:54:51;;;;;;;6.90;5.60;;;6.30;99.90;;;;;;5033916;28;20033;-77
2021/11/17 04:57:44;;;;;;;7.28;5.63;;;6.40;99.90;;;;;;5032412;28;20384;-79
2021/11/17 05:00:32;;;;;;;7.85;5.75;;;6.30;99.90;;;;;;5034784;28;20040;-77
2021/11/17 05:03:36;;;;;;;7.35;5.65;;;6.40;99.90;;;;;;5034147;28;20033;-77
2021/11/17 05:06:25;;;;;;;7.38;5.45;;;6.30;99.90;;;;;;5034417;28;20025;-77
2021/11/17 05:09:05;;;;;;;7.20;6.40;;;6.40;99.90;;;;;;5033561;28;20087;-76
2021/11/17 05:11:48;;;;;;;8.55;5.88;;;6.30;99.90;;;;;;5033590;28;20036;-76
2021/11/17 05:14:22;;;;;;;18.98;13.30;;;6.30;99.90;;;;;;5030818;28;20070;-76
2021/11/17 05:17:06;;;;;;;7.38;5.97;;;6.40;99.90;;;;;;5034752;28;20385;-76
2021/11/17 05:19:46;;;;;;;12.82;5.90;;;6.40;99.90;;;;;;5030928;28;20104;-77
2021/11/17 05:22:18;;;;;;;9.27;6.82;;;6.30;99.90;;;;;;5035181;28;20032;-77
2021/11/17 05:24:59;;;;;;;7.57;6.10;;;6.30;99.90;;;;;;5027135;28;20033;-77
2021/11/17 05:27:33;;;;;;;6.75;5.68;;;6.30;99.90;;;;;;5039188;28;20025;-77
2021/11/17 05:30:38;;;;;;;7.47;5.43;;;6.30;99.90;;;;;;5050636;28;20014;-76
2021/11/17 05:33:19;;;;;;;7.43;5.80;;;6.30;99.90;;;;;;5047617;28;20089;-77
2021/11/17 05:36:07;;;;;;;10.18;6.72;;;6.30;99.90;;;;;;5051482;28;20025;-76
2021/11/17 05:38:41;;;;;;;5.78;4.05;;;6.30;99.90;;;;;;5047477;28;20058;-76
2021/11/17 05:41:34;;;;;;;6.40;4.13;;;6.20;99.90;;;;;;5048520;28;20424;-76
2021/11/17 05:44:22;;;;;;;5.15;4.13;;;6.10;99.90;;;;;;5038483;28;20026;-76
2021/11/17 05:47:02;;;;;;;7.82;4.95;;;6.10;99.90;;;;;;5027936;28;20374;-77
2021/11/17 05:49:50;;;;;;;6.40;4.80;;;6.10;99.90;;;;;;5030304;28;20080;-76
2021/11/17 05:52:47;;;;;;;8.50;4.93;;;6.10;99.90;;;;;;5034305;28;20111;-77
2021/11/17 05:55:28;;;;;;;7.20;5.82;;;6.10;99.90;;;;;;5040272;28;20113;-78
2021/11/17 05:58:00;;;;;;;5.70;4.90;;;6.10;99.90;;;;;;5045795;28;20104;-77
2021/11/17 06:00:44;;;;;;;8.77;4.63;;;6.20;99.90;;;;;;5057448;28;20392;-77
2021/11/17 06:03:22;;;;;;;7.38;5.93;;;6.20;99.90;;;;;;5058182;28;20507;-79
2021/11/17 06:05:47;;;;;;;7.85;5.25;;;6.20;99.90;;;;;;5059116;28;20024;-77
2021/11/17 06:08:13;;;;;;;6.75;5.20;;;6.10;99.90;;;;;;5062425;28;20029;-78
2021/11/17 06:10:42;;;;;;;7.93;5.70;;;6.10;99.90;;;;;;5061064;28;20045;-77
2021/11/17 06:13:09;;;;;;;7.45;5.40;;;6.10;99.90;;;;;;5049443;28;20033;-77
2021/11/17 06:15:37;;;;;;;7.63;5.35;;;6.10;99.90;;;;;;5042538;28;20025;-76
2021/11/17 06:18:05;;;;;;;9.23;6.90;;;6.10;99.90;;;;;;5045004;28;20108;-77
2021/11/17 06:20:31;;;;;;;8.95;6.22;;;6.10;99.90;;;;;;5042251;28;20029;-76
2021/11/17 06:23:07;;;;;;;13.35;7.55;;;6.10;99.90;;;;;;5042221;28;20022;-78
2021/11/17 06:25:36;;;;;;;7.10;5.57;;;6.00;99.90;;;;;;5040684;28;20024;-76
2021/11/17 06:28:04;;;;;;;9.77;6.22;;;6.00;99.90;;;;;;5038860;28;20032;-78
2021/11/17 06:30:41;;;;;;;7.45;6.28;;;6.00;99.90;;;;;;5041910;28;20032;-76
2021/11/17 06:33:08;;;;;;;25.08;8.35;;;6.00;99.90;;;;;;5037482;28;20029;-76
2021/11/17 06:35:35;;;;;;;17.50;7.80;;;6.00;99.90;;;;;;5026883;28;20034;-77
2021/11/17 06:38:02;;;;;;;10.68;6.93;;;6.10;99.90;;;;;;5037096;28;20029;-77
2021/11/17 06:40:29;;;;;;;8.50;5.65;;;6.00;99.90;;;;;;5036456;28;20416;-77
2021/11/17 06:42:57;;;;;;;10.98;6.55;;;6.00;99.90;;;;;;5037000;28;20100;-77
2021/11/17 06:45:47;;;;;;;7.22;5.70;;;6.00;99.90;;;;;;5037869;28;20464;-77
2021/11/17 06:48:14;;;;;;;7.07;5.65;;;6.00;99.90;;;;;;5032692;28;20022;-77
2021/11/17 06:50:43;;;;;;;7.65;5.60;;;6.00;99.90;;;;;;5031040;28;20040;-78
2021/11/17 06:53:09;;;;;;;8.82;6.35;;;6.00;99.90;;;;;;5035738;28;20026;-76
2021/11/17 06:55:35;;;;;;;9.80;6.25;;;6.00;99.90;;;;;;5039127;28;20032;-77
2021/11/17 06:58:01;;;;;;;7.00;5.43;;;6.00;99.90;;;;;;5042414;28;20025;-75
2021/11/17 07:00:29;;;;;;;8.75;5.90;;;6.00;99.90;;;;;;5043766;28;20052;-77
2021/11/17 07:02:55;;;;;;;8.43;5.93;;;6.00;99.90;;;;;;5042635;28;20021;-76
2021/11/17 07:05:21;;;;;;;7.88;5.47;;;6.10;99.90;;;;;;5040919;28;20017;-77
2021/11/17 07:07:48;;;;;;;8.70;5.80;;;6.10;99.90;;;;;;5040719;28;20026;-77
2021/11/17 07:10:16;;;;;;;7.95;5.78;;;6.10;99.90;;;;;;5044613;28;20519;-77
2021/11/17 07:12:42;;;;;;;7.90;5.68;;;6.10;99.90;;;;;;5044820;28;20022;-77
2021/11/17 07:15:10;;;;;;;9.48;6.50;;;6.20;99.90;;;;;;5037573;28;20136;-79
2021/11/17 07:17:36;;;;;;;8.57;5.82;;;6.20;99.90;;;;;;5033443;28;20014;-77
2021/11/17 07:20:04;;;;;;;6.70;5.28;;;6.20;99.90;;;;;;5039098;28;20041;-76
2021/11/17 07:22:31;;;;;;;6.85;5.00;;;6.20;99.90;;;;;;5038134;28;20112;-77
2021/11/17 07:24:57;;;;;;;6.68;4.78;;;6.20;99.90;;;;;;5039734;28;20539;-78
2021/11/17 07:27:23;;;;;;;8.18;5.15;;;6.20;99.90;;;;;;5046534;28;20033;-77
2021/11/17 07:29:54;;;;;;;8.70;5.03;;;6.20;99.90;;;;;;5056797;28;20032;-77
2021/11/17 07:32:22;;;;;;;6.65;4.53;;;6.20;99.90;;;;;;5057148;28;20108;-77
2021/11/17 07:34:47;;;;;;;6.80;4.40;;;6.20;99.90;;;;;;5067146;28;20029;-76
2021/11/17 07:37:13;;;;;;;9.20;4.95;;;6.20;99.90;;;;;;5074428;28;20500;-76
2021/11/17 07:39:39;;;;;;;9.02;5.72;;;6.20;99.90;;;;;;5057970;28;20032;-77
2021/11/17 07:42:05;;;;;;;8.07;5.43;;;6.20;99.90;;;;;;5069489;28;20058;-77
2021/11/17 07:44:31;;;;;;;9.73;5.15;;;6.30;99.90;;;;;;5044058;28;20036;-76
2021/11/17 07:47:00;;;;;;;7.25;5.05;;;6.40;99.90;;;;;;5037541;28;20086;-77
2021/11/17 07:49:27;;;;;;;6.40;4.50;;;6.40;99.90;;;;;;5037378;28;20021;-77
2021/11/17 07:51:55;;;;;;;8.50;5.10;;;6.40;99.90;;;;;;5036218;28;20037;-76
2021/11/17 07:54:22;;;;;;;7.85;5.72;;;6.40;99.90;;;;;;5037596;28;20105;-77
2021/11/17 07:56:49;;;;;;;7.20;4.80;;;6.50;99.90;;;;;;5034899;28;20516;-78
2021/11/17 07:59:19;;;;;;;5.88;4.90;;;6.40;99.90;;;;;;5032887;28;20033;-77
2021/11/17 08:01:45;;;;;;;8.93;5.20;;;6.50;99.90;;;;;;5017658;28;20116;-77
2021/11/17 08:04:14;;;;;;;5.88;4.78;;;6.60;99.90;;;;;;5034156;28;20033;-77
2021/11/17 08:06:40;;;;;;;4.88;3.72;;;6.60;99.90;;;;;;5035068;28;20013;-77
2021/11/17 08:09:07;;;;;;;5.50;4.55;;;6.50;99.90;;;;;;5034588;28;20040;-78
2021/11/17 08:11:33;;;;;;;6.15;4.57;;;6.60;99.90;;;;;;5032577;28;20022;-78
2021/11/17 08:13:59;;;;;;;7.35;4.40;;;6.60;99.90;;;;;;5034265;28;20022;-77
2021/11/17 08:16:24;;;;;;;4.88;3.75;;;6.60;99.90;;;;;;5030507;28;20021;-76
2021/11/17 08:18:50;;;;;;;6.05;4.68;;;6.60;99.90;;;;;;5034504;28;20021;-76
2021/11/17 08:21:16;;;;;;;4.78;4.07;;;6.60;99.90;;;;;;5029889;28;20104;-74
2021/11/17 08:23:43;;;;;;;4.00;3.03;;;6.70;99.90;;;;;;5033336;28;20148;-78
2021/11/17 08:26:09;;;;;;;4.78;3.15;;;6.60;99.90;;;;;;5033416;28;20044;-79
2021/11/17 08:28:34;;;;;;;3.78;2.85;;;6.60;99.90;;;;;;5031996;28;20473;-77
2021/11/17 08:31:00;;;;;;;2.95;2.33;;;6.70;99.90;;;;;;5026764;28;20033;-78
2021/11/17 08:33:26;;;;;;;3.38;3.08;;;6.60;99.90;;;;;;5035818;28;20048;-80
2021/11/17 08:35:51;;;;;;;7.28;3.20;;;6.60;99.90;;;;;;5042734;28;20153;-77
2021/11/17 08:38:22;;;;;;;4.65;3.15;;;6.60;99.90;;;;;;5024937;28;20060;-77
2021/11/17 08:40:53;;;;;;;;;;;6.50;99.90;;;;;;5015359;28;20026;-76
2021/11/17 08:43:20;;;;;;;5.28;3.10;;;6.50;99.90;;;;;;5013766;28;19957;-76
2021/11/17 08:45:48;;;;;;;3.00;2.55;;;6.30;99.90;;;;;;5014498;28;20026;-76
2021/11/17 08:48:15;;;;;;;4.35;2.65;;;6.20;99.90;;;;;;5015375;28;20029;-76
2021/11/17 08:50:41;;;;;;;4.32;3.05;;;6.10;99.90;;;;;;5014102;28;20022;-75
2021/11/17 08:53:09;;;;;;;4.05;2.90;;;6.10;99.90;;;;;;5013269;28;20482;-76
2021/11/17 08:55:35;;;;;;;2.95;2.50;;;6.00;99.90;;;;;;5015896;28;20025;-76
2021/11/17 08:58:02;;;;;;;5.95;2.85;;;6.00;99.90;;;;;;5014355;28;20160;-76
2021/11/17 09:00:28;;;;;;;2.50;2.30;;;5.90;99.90;;;;;;5014112;28;20022;-76
2021/11/17 09:02:55;;;;;;;5.60;2.58;;;5.90;99.90;;;;;;5013041;28;20504;-76
2021/11/17 09:05:26;;;;;;;2.92;2.45;;;5.90;99.90;;;;;;5012446;28;20033;-76
2021/11/17 09:07:52;;;;;;;4.43;2.58;;;5.80;99.90;;;;;;5013999;28;20485;-77
2021/11/17 09:10:24;;;;;;;4.47;2.65;;;5.80;99.90;;;;;;5013628;28;20065;-77
2021/11/17 09:12:50;;;;;;;3.20;2.65;;;5.90;99.90;;;;;;5015254;28;20034;-76
2021/11/17 09:15:19;;;;;;;4.10;2.25;;;5.80;99.90;;;;;;5014864;28;20030;-77
2021/11/17 09:17:45;;;;;;;2.75;2.55;;;5.80;99.90;;;;;;5013750;28;20034;-76
2021/11/17 09:20:12;;;;;;;3.70;2.75;;;5.80;99.90;;;;;;5013919;28;20053;-77
2021/11/17 09:22:40;;;;;;;2.75;2.47;;;5.80;99.90;;;;;;5015807;28;20021;-77
2021/11/17 09:25:07;;;;;;;2.42;2.22;;;5.80;99.90;;;;;;5013297;28;20509;-77
2021/11/17 09:27:34;;;;;;;2.97;2.40;;;5.70;99.90;;;;;;5016932;28;20064;-77
2021/11/17 09:30:00;;;;;;;2.88;2.67;;;5.80;99.90;;;;;;5012872;28;20276;-78
2021/11/17 09:32:26;;;;;;;3.85;2.25;;;5.80;99.90;;;;;;5014018;28;20088;-76
2021/11/17 09:34:52;;;;;;;5.45;2.03;;;5.80;99.90;;;;;;5013487;28;20325;-76
2021/11/17 09:37:23;;;;;;;4.38;2.00;;;5.90;99.90;;;;;;5020412;28;20026;-76
2021/11/17 09:39:52;;;;;;;4.22;2.25;;;5.90;99.90;;;;;;5015399;28;20076;-76
2021/11/17 09:42:18;;;;;;;7.63;2.60;;;5.90;99.90;;;;;;5014808;28;20417;-77
2021/11/17 09:44:44;;;;;;;3.97;2.15;;;6.00;99.90;;;;;;5012640;28;20026;-75
2021/11/17 09:47:14;;;;;;;2.67;2.33;;;6.00;99.90;;;;;;5013636;28;20037;-77
2021/11/17 09:49:52;;;;;;;3.83;2.28;;;6.10;99.90;;;;;;5013294;28;20288;-76
2021/11/17 09:52:30;;;;;;;2.58;2.17;;;6.10;99.90;;;;;;5012957;28;20469;-76
2021/11/17 09:55:05;;;;;;;1.92;1.70;;;6.10;99.90;;;;;;5012677;28;20030;-77
2021/11/17 09:57:36;;;;;;;2.05;1.65;;;6.20;99.90;;;;;;5013442;28;20079;-77
2021/11/17 10:00:07;;;;;;;2.78;2.20;;;6.20;99.90;;;;;;5014205;28;20037;-76
2021/11/17 10:02:54;;;;;;;3.78;2.13;;;6.30;99.90;;;;;;5013897;28;20501;-76
2021/11/17 10:09:01;;;;;;;2.55;2.33;;;6.40;99.90;;;;;;5063552;22;20393;-72
2021/11/17 10:14:17;;;;;;;3.22;2.05;;;6.40;99.90;;;;;;5052787;28;20031;-72
2021/11/17 10:16:43;;;;;;;3.70;2.20;;;6.60;99.90;;;;;;5053000;28;20025;-72
2021/11/17 10:19:38;;;;;;;2.72;2.25;;;6.60;99.90;;;;;;5034568;28;20032;-72
2021/11/17 10:22:10;;;;;;;2.83;2.20;;;6.60;99.90;;;;;;5017349;28;20468;-72
2021/11/17 10:24:41;;;;;;;2.35;2.10;;;6.60;99.90;;;;;;5051916;28;20017;-71
2021/11/17 10:27:09;;;;;;;2.70;1.95;;;6.60;99.90;;;;;;5034638;28;20396;-73
2021/11/17 10:29:44;;;;;;;2.63;1.90;;;6.50;99.90;;;;;;5053744;28;20035;-73
2021/11/17 10:32:41;;;;;;;6.15;2.05;;;6.60;99.90;;;;;;5059265;28;20025;-73
2021/11/17 10:35:19;;;;;;;1.60;1.50;;;6.60;99.90;;;;;;5064609;28;20032;-72
2021/11/17 10:37:58;;;;;;;1.85;1.70;;;6.70;99.90;;;;;;5053861;28;20372;-72
2021/11/17 10:40:27;;;;;;;2.85;2.05;;;6.80;99.90;;;;;;5035855;28;20117;-73
2021/11/17 10:43:14;;;;;;;2.08;1.85;;;6.70;99.90;;;;;;5056259;28;20061;-74
2021/11/17 10:45:46;;;;;;;3.08;1.73;;;6.70;99.90;;;;;;5056298;28;20100;-73
2021/11/17 10:48:49;;;;;;;2.10;1.60;;;6.70;99.90;;;;;;5039091;28;20021;-73
2021/11/17 10:51:18;;;;;;;1.75;1.60;;;6.80;99.90;;;;;;5055780;28;20417;-72
2021/11/17 10:53:49;;;;;;;2.70;1.75;;;6.90;99.90;;;;;;5055979;28;20033;-72
2021/11/17 10:56:17;;;;;;;;;;;7.10;99.90;;;;;;5056179;28;20546;-72
2021/11/17 10:58:48;;;;;;;2.40;1.40;;;7.10;99.90;;;;;;5055510;28;19999;-72
2021/11/17 11:01:19;;;;;;;1.92;1.25;;;7.00;99.90;;;;;;5056747;28;20025;-73
2021/11/17 11:03:59;;;;;;;3.42;2.40;;;6.90;99.90;;;;;;5057034;28;20025;-73
2021/11/17 11:06:40;;;;;;;2.08;1.40;;;6.90;99.90;;;;;;5058051;28;20036;-73
2021/11/17 11:09:32;;;;;;;2.35;1.50;;;6.90;99.90;;;;;;5069604;28;20033;-72
2021/11/17 11:12:01;;;;;;;1.45;1.25;;;6.80;99.90;;;;;;5049514;28;20020;-73
2021/11/17 11:14:36;;;;;;;1.55;1.35;;;6.70;99.90;;;;;;5059633;28;20029;-74
2021/11/17 11:17:20;;;;;;;3.55;1.50;;;6.70;99.90;;;;;;5059623;28;20029;-72
2021/11/17 11:19:46;;;;;;;2.05;1.52;;;6.90;99.90;;;;;;5056869;28;20031;-73
2021/11/17 11:22:19;;;;;;;3.67;1.77;;;7.00;99.90;;;;;;5056401;28;20439;-73
2021/11/17 11:24:57;;;;;;;3.35;2.42;;;7.20;99.90;;;;;;5038653;28;20021;-72
2021/11/17 11:27:36;;;;;;;2.30;1.58;;;7.40;99.90;;;;;;5056203;28;20122;-71
2021/11/17 11:30:07;;;;;;;1.60;1.50;;;7.20;99.90;;;;;;5039191;28;20473;-73
2021/11/17 11:32:33;;;;;;;1.92;1.60;;;7.10;99.90;;;;;;5057194;28;20349;-73
2021/11/17 11:34:58;;;;;;;1.60;1.42;;;7.20;99.90;;;;;;5058584;28;20416;-73
2021/11/17 11:37:24;;;;;;;2.42;1.38;;;7.10;99.90;;;;;;5059815;28;20071;-74
2021/11/17 11:40:01;;;;;;;2.50;2.20;;;7.20;99.90;;;;;;5058564;28;20056;-73
2021/11/17 11:42:57;;;;;;;1.48;1.23;;;7.20;99.90;;;;;;5058301;28;20043;-73
2021/11/17 11:45:26;;;;;;;1.67;1.58;;;7.10;99.90;;;;;;5061609;28;20044;-72
2021/11/17 11:48:07;;;;;;;2.55;1.48;;;7.00;99.90;;;;;;5058971;28;20017;-73
2021/11/17 11:50:33;;;;;;;2.05;1.30;;;7.00;99.90;;;;;;5043305;28;20025;-72
2021/11/17 11:53:04;;;;;;;1.27;1.15;;;6.90;99.90;;;;;;5063001;28;20029;-73
2021/11/17 11:55:56;;;;;;;2.20;1.50;;;6.80;99.90;;;;;;5042199;28;20408;-73
2021/11/17 11:58:23;;;;;;;1.92;1.20;;;6.80;99.90;;;;;;5059221;28;20506;-73
2021/11/17 12:01:27;;;;;;;2.17;1.25;;;6.80;99.90;;;;;;5040433;28;20135;-73
2021/11/17 12:04:00;;;;;;;1.30;1.20;;;6.80;99.90;;;;;;5035586;28;20576;-72
2021/11/17 12:06:33;;;;;;;3.13;1.42;;;6.90;99.90;;;;;;5069977;28;20052;-72
2021/11/17 12:09:25;;;;;;;2.08;1.38;;;6.90;99.90;;;;;;5074467;28;20082;-72
2021/11/17 12:12:02;;;;;;;2.22;1.30;;;7.00;99.90;;;;;;5074957;28;20005;-73
2021/11/17 12:14:38;;;;;;;1.15;1.05;;;7.10;99.90;;;;;;5073310;28;20032;-73
2021/11/17 12:17:06;;;;;;;1.92;1.40;;;6.90;99.90;;;;;;5069502;28;20027;-72
2021/11/17 12:19:35;;;;;;;0.95;0.95;;;6.80;99.90;;;;;;5066043;28;20025;-73
2021/11/17 12:22:09;;;;;;;1.15;1.08;;;6.70;99.90;;;;;;5063701;28;20032;-73
2021/11/17 12:24:39;;;;;;;1.70;1.38;;;6.70;99.90;;;;;;5059567;28;20028;-73
2021/11/17 12:27:24;;;;;;;5.72;1.80;;;6.60;99.90;;;;;;5059151;28;20025;-73
2021/11/17 12:29:54;;;;;;;1.80;1.45;;;6.70;99.90;;;;;;5039479;28;20064;-72
2021/11/17 12:32:25;;;;;;;1.67;1.42;;;6.80;99.90;;;;;;5056934;28;20025;-72
2021/11/17 12:34:57;;;;;;;1.75;1.35;;;6.70;99.90;;;;;;5057072;28;20431;-73
2021/11/17 12:37:36;;;;;;;1.25;1.15;;;6.80;99.90;;;;;;5056034;28;20033;-73
2021/11/17 12:40:10;;;;;;;2.83;1.38;;;6.80;99.90;;;;;;5056478;28;20484;-73
2021/11/17 12:42:41;;;;;;;2.30;1.45;;;6.70;99.90;;;;;;5057531;28;20075;-72
2021/11/17 12:45:23;;;;;;;1.92;1.67;;;6.80;99.90;;;;;;5057553;28;20074;-72
2021/11/17 12:48:03;;;;;;;1.88;1.73;;;6.80;99.90;;;;;;5056016;28;20382;-74
2021/11/17 12:50:44;;;;;;;4.95;1.50;;;6.90;99.90;;;;;;5055631;28;20107;-73
2021/11/17 12:53:20;;;;;;;0.98;0.85;;;6.90;99.90;;;;;;5055659;28;20044;-73
2021/11/17 12:55:59;;;;;;;0.75;0.75;;;6.80;99.90;;;;;;5037535;28;20040;-72
2021/11/17 12:58:34;;;;;;;2.45;0.88;;;6.80;99.90;;;;;;5054634;28;20032;-73
2021/11/17 13:01:18;;;;;;;1.20;1.10;;;6.80;99.90;;;;;;5037174;28;20435;-72
2021/11/17 13:03:49;;;;;;;1.08;0.98;;;6.80;99.90;;;;;;5053223;28;20032;-72
2021/11/17 13:06:22;;;;;;;;;;;6.80;99.90;;;;;;5055079;28;20032;-73
2021/11/17 13:09:08;;;;;;;2.28;1.33;;;6.80;99.90;;;;;;5053795;28;19920;-73
2021/11/17 13:11:49;;;;;;;1.70;1.08;;;6.70;99.90;;;;;;5053879;28;20024;-72
2021/11/17 13:14:26;;;;;;;1.52;0.93;;;6.80;99.90;;;;;;5053673;28;20531;-73
2021/11/17 13:16:58;;;;;;;2.92;0.90;;;6.90;99.90;;;;;;5035552;28;20032;-72
2021/11/17 13:19:39;;;;;;;1.33;1.20;;;6.90;99.90;;;;;;5052860;28;20438;-74
2021/11/17 13:22:32;;;;;;;1.75;0.98;;;7.00;99.90;;;;;;5035285;28;20025;-74
2021/11/17 13:25:22;;;;;;;3.13;1.20;;;7.00;99.90;;;;;;5053696;28;20483;-73
2021/11/17 13:27:52;;;;;;;1.10;1.00;;;7.00;99.90;;;;;;5053262;28;20096;-73
2021/11/17 13:30:17;;;;;;;1.60;1.27;;;6.90;99.90;;;;;;5053537;28;20096;-74
2021/11/17 13:32:46;;;;;;;1.05;0.98;;;6.90;99.90;;;;;;5036177;28;20084;-74
2021/11/17 13:35:32;;;;;;;1.08;0.90;;;6.90;99.90;;;;;;5062692;28;20043;-74
2021/11/17 13:38:21;;;;;;;1.38;1.13;;;7.00;99.90;;;;;;5054881;28;20540;-73
2021/11/17 13:40:50;;;;;;;2.30;1.70;;;7.00;99.90;;;;;;5052996;28;20060;-73
2021/11/17 13:43:17;;;;;;;1.23;1.00;;;7.00;99.90;;;;;;5052631;28;20025;-73
2021/11/17 13:45:45;;;;;;;2.47;1.73;;;6.90;99.90;;;;;;5035410;28;20025;-72
2021/11/17 13:48:13;;;;;;;2.65;1.50;;;6.90;99.90;;;;;;5034782;28;20044;-72
2021/11/17 13:50:40;;;;;;;1.42;1.23;;;6.90;99.90;;;;;;5053299;28;20082;-72
2021/11/17 13:53:08;;;;;;;2.25;1.55;;;6.90;99.90;;;;;;5067513;28;20048;-72
2021/11/17 13:55:37;;;;;;;1.63;1.52;;;6.90;99.90;;;;;;5057699;28;20025;-73
2021/11/17 13:58:05;;;;;;;2.25;1.33;;;6.80;99.90;;;;;;5054132;28;20048;-72
2021/11/17 14:00:31;;;;;;;3.15;1.38;;;6.80;99.90;;;;;;5053621;28;20032;-71
2021/11/17 14:02:58;;;;;;;3.95;1.67;;;6.70;99.90;;;;;;5053220;28;20079;-73
2021/11/17 14:05:25;;;;;;;1.55;1.45;;;6.70;99.90;;;;;;5052972;28;20023;-73
2021/11/17 14:07:51;;;;;;;1.70;1.60;;;6.70;99.90;;;;;;5035483;28;20033;-73
2021/11/17 14:10:18;;;;;;;1.88;1.70;;;6.60;99.90;;;;;;5054029;28;20079;-74
2021/11/17 14:12:45;;;;;;;1.80;1.70;;;6.70;99.90;;;;;;5037265;28;20075;-73
2021/11/17 14:15:10;;;;;;;2.45;1.92;;;6.70;99.90;;;;;;5037950;28;20024;-73
2021/11/17 14:17:36;;;;;;;1.73;1.42;;;6.60;99.90;;;;;;5048285;28;20021;-74
2021/11/17 14:20:05;;;;;;;2.67;1.60;;;6.70;99.90;;;;;;5067644;28;20033;-73
2021/11/17 14:22:31;;;;;;;1.77;1.67;;;6.70;99.90;;;;;;5041239;28;20480;-72
2021/11/17 14:25:02;;;;;;;1.33;1.23;;;6.70;99.90;;;;;;5058701;28;20096;-74
2021/11/17 14:27:29;;;;;;;2.58;2.20;;;6.80;99.90;;;;;;5059386;28;20415;-73
2021/11/17 14:30:01;;;;;;;2.70;1.85;;;6.80;99.90;;;;;;5057398;28;20095;-73
2021/11/17 14:32:38;;;;;;;1.80;1.58;;;6.90;99.90;;;;;;5057351;28;20025;-73
2021/11/17 14:35:05;;;;;;;2.72;2.15;;;6.90;99.90;;;;;;5056984;28;20494;-73
2021/11/17 14:37:31;;;;;;;1.88;1.70;;;6.90;99.90;;;;;;5056900;28;20053;-73
2021/11/17 14:39:57;;;;;;;3.90;1.90;;;6.80;99.90;;;;;;5057205;28;20032;-74
2021/11/17 14:42:22;;;;;;;2.90;1.67;;;6.90;99.90;;;;;;5056942;28;20037;-74
2021/11/17 14:44:49;;;;;;;1.50;1.40;;;6.90;99.90;;;;;;5051984;28;20025;-73
2021/11/17 14:47:15;;;;;;;2.08;1.77;;;6.90;99.90;;;;;;5070514;28;20024;-73
2021/11/17 14:49:42;;;;;;;1.92;1.83;;;6.90;99.90;;;;;;5071238;28;20021;-73
2021/11/17 14:52:12;;;;;;;2.30;1.50;;;6.90;99.90;;;;;;5071047;28;20033;-73
2021/11/17 14:54:39;;;;;;;2.38;1.85;;;6.90;99.90;;;;;;5041514;28;20036;-74
2021/11/17 14:57:06;;;;;;;2.88;1.70;;;6.90;99.90;;;;;;5038275;28;20033;-72
2021/11/17 14:59:33;;;;;;;2.45;1.63;;;6.90;99.90;;;;;;5055891;28;20082;-73
2021/11/17 15:01:59;;;;;;;2.92;1.85;;;6.90;99.90;;;;;;5055299;28;20021;-72
2021/11/17 15:04:25;;;;;;;2.33;2.00;;;6.80;99.90;;;;;;5055433;28;20017;-73
2021/11/17 15:06:51;;;;;;;3.90;2.20;;;6.80;99.90;;;;;;5037567;28;20029;-72
2021/11/17 15:09:18;;;;;;;2.95;1.92;;;6.70;99.90;;;;;;5055644;28;20020;-73
2021/11/17 15:11:58;;;;;;;3.42;1.92;;;6.70;99.90;;;;;;5055734;28;20393;-73
2021/11/17 15:14:26;;;;;;;2.83;1.75;;;6.80;99.90;;;;;;5055792;28;20017;-73
2021/11/17 15:16:52;;;;;;;2.03;1.80;;;6.80;99.90;;;;;;5037475;28;20040;-73
2021/11/17 15:19:18;;;;;;;2.50;2.13;;;6.80;99.90;;;;;;5049082;28;20074;-74
2021/11/17 15:21:44;;;;;;;2.03;1.80;;;6.80;99.90;;;;;;5069487;28;20017;-72
2021/11/17 15:24:10;;;;;;;5.22;2.72;;;6.80;99.90;;;;;;5068882;28;20021;-73
2021/11/17 15:27:08;;;;;;;2.63;2.08;;;6.80;99.90;;;;;;5068507;28;20496;-73
2021/11/17 15:29:35;;;;;;;2.38;1.90;;;6.80;99.90;;;;;;5031099;28;20036;-72
2021/11/17 15:32:01;;;;;;;4.40;1.98;;;6.80;99.90;;;;;;5063768;28;20024;-73
2021/11/17 15:34:27;;;;;;;4.13;2.55;;;6.80;99.90;;;;;;5059712;28;20060;-72
2021/11/17 15:36:52;;;;;;;3.65;2.03;;;6.80;99.90;;;;;;5058221;28;20439;-73
2021/11/17 15:39:18;;;;;;;2.20;2.00;;;6.80;99.90;;;;;;5058169;28;20032;-73
2021/11/17 15:41:43;;;;;;;2.70;2.50;;;6.80;99.90;;;;;;5056655;28;20028;-73
2021/11/17 15:44:11;;;;;;;2.42;1.90;;;6.80;99.90;;;;;;5028947;28;20021;-73
2021/11/17 15:46:48;;;;;;;2.25;2.03;;;6.80;99.90;;;;;;5019120;28;20018;-73
2021/11/17 15:49:14;;;;;;;2.78;2.15;;;6.80;99.90;;;;;;5018048;28;20583;-72
2021/11/17 15:51:41;;;;;;;3.05;1.83;;;6.80;99.90;;;;;;5036689;28;20108;-74
2021/11/17 15:54:07;;;;;;;2.40;2.20;;;6.80;99.90;;;;;;5029170;28;20021;-73
2021/11/17 15:56:34;;;;;;;6.13;2.45;;;6.80;99.90;;;;;;5048937;28;20117;-73
2021/11/17 15:59:00;;;;;;;3.38;2.50;;;6.80;99.90;;;;;;5040209;28;20071;-72
2021/11/17 16:01:26;;;;;;;2.60;2.28;;;6.80;99.90;;;;;;5036041;28;20085;-73
2021/11/17 16:03:54;;;;;;;3.70;2.20;;;6.80;99.90;;;;;;5017480;28;20108;-73
2021/11/17 16:06:22;;;;;;;3.17;2.20;;;6.80;99.90;;;;;;5035741;28;20045;-73